sensor_id;sensor_type;location;lat;lon;timestamp;pressure;altitude;pressure_sealevel;temperature
69435;BMP180;56625;54.322;18.582;2023-04-25T00:00:23;99476.20;;;12.30
69435;BMP180;56625;54.322;18.582;2023-04-25T00:03:11;99475.40;;;12.30
69435;BMP180;56625;54.322;18.582;2023-04-25T00:05:40;99477.40;;;12.30
69435;BMP180;56625;54.322;18.582;2023-04-25T00:08:07;99475.00;;;12.28
69435;BMP180;56625;54.322;18.582;2023-04-25T00:10:36;99475.00;;;12.30
69435;BMP180;56625;54.322;18.582;2023-04-25T00:13:04;99471.80;;;12.28
69435;BMP180;56625;54.322;18.582;2023-04-25T00:15:32;99469.60;;;12.28
69435;BMP180;56625;54.322;18.582;2023-04-25T00:17:59;99470.00;;;12.30
69435;BMP180;56625;54.322;18.582;2023-04-25T00:20:27;99468.20;;;12.24
69435;BMP180;56625;54.322;18.582;2023-04-25T00:22:55;99463.40;;;12.30
69435;BMP180;56625;54.322;18.582;2023-04-25T00:25:23;99468.20;;;12.30
69435;BMP180;56625;54.322;18.582;2023-04-25T00:27:51;99461.40;;;12.30
69435;BMP180;56625;54.322;18.582;2023-04-25T00:30:19;99458.00;;;12.20
69435;BMP180;56625;54.322;18.582;2023-04-25T00:32:47;99452.60;;;12.20
69435;BMP180;56625;54.322;18.582;2023-04-25T00:35:15;99460.80;;;12.14
69435;BMP180;56625;54.322;18.582;2023-04-25T00:37:43;99461.60;;;12.10
69435;BMP180;56625;54.322;18.582;2023-04-25T00:40:11;99463.80;;;12.10
69435;BMP180;56625;54.322;18.582;2023-04-25T00:42:41;99464.40;;;12.10
69435;BMP180;56625;54.322;18.582;2023-04-25T00:45:13;99470.40;;;12.10
69435;BMP180;56625;54.322;18.582;2023-04-25T00:47:43;99468.00;;;12.10
69435;BMP180;56625;54.322;18.582;2023-04-25T00:50:12;99468.80;;;12.10
69435;BMP180;56625;54.322;18.582;2023-04-25T00:52:43;99476.80;;;12.10
69435;BMP180;56625;54.322;18.582;2023-04-25T00:55:12;99474.40;;;12.10
69435;BMP180;56625;54.322;18.582;2023-04-25T00:57:41;99479.20;;;12.10
69435;BMP180;56625;54.322;18.582;2023-04-25T01:00:10;99473.20;;;12.10
69435;BMP180;56625;54.322;18.582;2023-04-25T01:02:40;99482.20;;;12.16
69435;BMP180;56625;54.322;18.582;2023-04-25T01:05:10;99474.20;;;12.20
69435;BMP180;56625;54.322;18.582;2023-04-25T01:07:39;99471.60;;;12.20
69435;BMP180;56625;54.322;18.582;2023-04-25T01:10:08;99479.00;;;12.20
69435;BMP180;56625;54.322;18.582;2023-04-25T01:12:37;99476.00;;;12.20
69435;BMP180;56625;54.322;18.582;2023-04-25T01:15:05;99477.80;;;12.20
69435;BMP180;56625;54.322;18.582;2023-04-25T01:17:34;99472.20;;;12.20
69435;BMP180;56625;54.322;18.582;2023-04-25T01:20:05;99472.80;;;12.20
69435;BMP180;56625;54.322;18.582;2023-04-25T01:22:33;99469.20;;;12.20
69435;BMP180;56625;54.322;18.582;2023-04-25T01:25:02;99468.00;;;12.20
69435;BMP180;56625;54.322;18.582;2023-04-25T01:27:30;99469.00;;;12.20
69435;BMP180;56625;54.322;18.582;2023-04-25T01:29:59;99472.60;;;12.12
69435;BMP180;56625;54.322;18.582;2023-04-25T01:32:27;99472.20;;;12.10
69435;BMP180;56625;54.322;18.582;2023-04-25T01:34:55;99471.80;;;12.10
69435;BMP180;56625;54.322;18.582;2023-04-25T01:37:23;99467.00;;;12.10
69435;BMP180;56625;54.322;18.582;2023-04-25T01:39:51;99471.40;;;12.10
69435;BMP180;56625;54.322;18.582;2023-04-25T01:42:20;99477.60;;;12.10
69435;BMP180;56625;54.322;18.582;2023-04-25T01:44:48;99473.40;;;12.10
69435;BMP180;56625;54.322;18.582;2023-04-25T01:47:15;99477.80;;;12.10
69435;BMP180;56625;54.322;18.582;2023-04-25T01:49:43;99478.60;;;12.04
69435;BMP180;56625;54.322;18.582;2023-04-25T01:52:11;99481.00;;;12.00
69435;BMP180;56625;54.322;18.582;2023-04-25T01:54:40;99486.00;;;12.02
69435;BMP180;56625;54.322;18.582;2023-04-25T01:57:12;99488.60;;;12.00
69435;BMP180;56625;54.322;18.582;2023-04-25T01:59:41;99488.60;;;12.00
69435;BMP180;56625;54.322;18.582;2023-04-25T02:02:09;99488.80;;;12.00
69435;BMP180;56625;54.322;18.582;2023-04-25T02:04:37;99491.00;;;12.00
69435;BMP180;56625;54.322;18.582;2023-04-25T02:07:05;99491.00;;;12.00
69435;BMP180;56625;54.322;18.582;2023-04-25T02:09:33;99492.40;;;11.92
69435;BMP180;56625;54.322;18.582;2023-04-25T02:12:01;99498.60;;;11.90
69435;BMP180;56625;54.322;18.582;2023-04-25T02:14:29;99498.00;;;11.90
69435;BMP180;56625;54.322;18.582;2023-04-25T02:16:57;99495.80;;;11.90
69435;BMP180;56625;54.322;18.582;2023-04-25T02:19:26;99497.20;;;11.90
69435;BMP180;56625;54.322;18.582;2023-04-25T02:21:54;99499.80;;;11.90
69435;BMP180;56625;54.322;18.582;2023-04-25T02:24:22;99496.20;;;11.90
69435;BMP180;56625;54.322;18.582;2023-04-25T02:26:50;99502.00;;;11.90
69435;BMP180;56625;54.322;18.582;2023-04-25T02:29:18;99501.40;;;11.90
69435;BMP180;56625;54.322;18.582;2023-04-25T02:31:46;99503.20;;;11.90
69435;BMP180;56625;54.322;18.582;2023-04-25T02:34:14;99495.60;;;11.90
69435;BMP180;56625;54.322;18.582;2023-04-25T02:36:42;99502.20;;;11.90
69435;BMP180;56625;54.322;18.582;2023-04-25T02:39:09;99497.80;;;11.90
69435;BMP180;56625;54.322;18.582;2023-04-25T02:41:38;99500.40;;;11.90
69435;BMP180;56625;54.322;18.582;2023-04-25T02:44:06;99493.60;;;11.88
69435;BMP180;56625;54.322;18.582;2023-04-25T02:46:33;99501.20;;;11.90
69435;BMP180;56625;54.322;18.582;2023-04-25T02:49:06;99499.00;;;11.80
69435;BMP180;56625;54.322;18.582;2023-04-25T02:51:34;99493.60;;;11.82
69435;BMP180;56625;54.322;18.582;2023-04-25T02:54:03;99497.40;;;11.80
69435;BMP180;56625;54.322;18.582;2023-04-25T02:56:30;99496.40;;;11.80
69435;BMP180;56625;54.322;18.582;2023-04-25T02:58:58;99493.40;;;11.80
69435;BMP180;56625;54.322;18.582;2023-04-25T03:01:26;99498.60;;;11.80
69435;BMP180;56625;54.322;18.582;2023-04-25T03:03:54;99491.60;;;11.80
69435;BMP180;56625;54.322;18.582;2023-04-25T03:06:22;99492.40;;;11.70
69435;BMP180;56625;54.322;18.582;2023-04-25T03:08:50;99492.20;;;11.70
69435;BMP180;56625;54.322;18.582;2023-04-25T03:11:18;99494.20;;;11.70
69435;BMP180;56625;54.322;18.582;2023-04-25T03:13:47;99492.60;;;11.70
69435;BMP180;56625;54.322;18.582;2023-04-25T03:16:16;99489.80;;;11.70
69435;BMP180;56625;54.322;18.582;2023-04-25T03:18:44;99489.40;;;11.70
69435;BMP180;56625;54.322;18.582;2023-04-25T03:21:12;99489.20;;;11.70
69435;BMP180;56625;54.322;18.582;2023-04-25T03:23:39;99491.80;;;11.70
69435;BMP180;56625;54.322;18.582;2023-04-25T03:26:08;99490.40;;;11.70
69435;BMP180;56625;54.322;18.582;2023-04-25T03:28:35;99490.00;;;11.70
69435;BMP180;56625;54.322;18.582;2023-04-25T03:31:03;99487.40;;;11.70
69435;BMP180;56625;54.322;18.582;2023-04-25T03:33:31;99485.60;;;11.70
69435;BMP180;56625;54.322;18.582;2023-04-25T03:35:59;99485.80;;;11.70
69435;BMP180;56625;54.322;18.582;2023-04-25T03:38:27;99485.40;;;11.70
69435;BMP180;56625;54.322;18.582;2023-04-25T03:40:55;99487.20;;;11.70
69435;BMP180;56625;54.322;18.582;2023-04-25T03:43:24;99483.60;;;11.70
69435;BMP180;56625;54.322;18.582;2023-04-25T03:45:51;99485.60;;;11.70
69435;BMP180;56625;54.322;18.582;2023-04-25T03:48:20;99492.20;;;11.70
69435;BMP180;56625;54.322;18.582;2023-04-25T03:50:50;99505.60;;;11.60
69435;BMP180;56625;54.322;18.582;2023-04-25T03:53:18;99509.80;;;11.50
69435;BMP180;56625;54.322;18.582;2023-04-25T03:55:45;99514.60;;;11.40
69435;BMP180;56625;54.322;18.582;2023-04-25T03:58:13;99504.00;;;11.28
69435;BMP180;56625;54.322;18.582;2023-04-25T04:00:41;99510.00;;;11.00
69435;BMP180;56625;54.322;18.582;2023-04-25T04:03:09;99512.40;;;10.80
69435;BMP180;56625;54.322;18.582;2023-04-25T04:05:38;99513.80;;;10.60
69435;BMP180;56625;54.322;18.582;2023-04-25T04:08:08;99516.40;;;10.50
69435;BMP180;56625;54.322;18.582;2023-04-25T04:10:36;99515.60;;;10.32
69435;BMP180;56625;54.322;18.582;2023-04-25T04:13:03;99524.20;;;10.20
69435;BMP180;56625;54.322;18.582;2023-04-25T04:15:31;99518.60;;;10.10
69435;BMP180;56625;54.322;18.582;2023-04-25T04:18:00;99518.40;;;10.10
69435;BMP180;56625;54.322;18.582;2023-04-25T04:20:30;99520.00;;;10.00
69435;BMP180;56625;54.322;18.582;2023-04-25T04:22:58;99524.80;;;10.00
69435;BMP180;56625;54.322;18.582;2023-04-25T04:25:26;99520.80;;;9.92
69435;BMP180;56625;54.322;18.582;2023-04-25T04:27:54;99519.20;;;9.90
69435;BMP180;56625;54.322;18.582;2023-04-25T04:30:23;99523.60;;;9.90
69435;BMP180;56625;54.322;18.582;2023-04-25T04:32:52;99527.60;;;9.80
69435;BMP180;56625;54.322;18.582;2023-04-25T04:35:20;99528.80;;;9.80
69435;BMP180;56625;54.322;18.582;2023-04-25T04:37:48;99532.80;;;9.80
69435;BMP180;56625;54.322;18.582;2023-04-25T04:40:16;99535.80;;;9.80
69435;BMP180;56625;54.322;18.582;2023-04-25T04:42:44;99538.40;;;9.80
69435;BMP180;56625;54.322;18.582;2023-04-25T04:45:15;99538.00;;;9.80
69435;BMP180;56625;54.322;18.582;2023-04-25T04:47:43;99534.20;;;9.80
69435;BMP180;56625;54.322;18.582;2023-04-25T04:50:12;99533.80;;;9.80
69435;BMP180;56625;54.322;18.582;2023-04-25T04:52:40;99532.60;;;9.80
69435;BMP180;56625;54.322;18.582;2023-04-25T04:55:08;99529.20;;;9.80
69435;BMP180;56625;54.322;18.582;2023-04-25T04:57:36;99530.80;;;9.80
69435;BMP180;56625;54.322;18.582;2023-04-25T05:00:07;99538.40;;;9.80
69435;BMP180;56625;54.322;18.582;2023-04-25T05:02:38;99535.60;;;9.80
69435;BMP180;56625;54.322;18.582;2023-04-25T05:05:07;99536.20;;;9.90
69435;BMP180;56625;54.322;18.582;2023-04-25T05:07:35;99537.80;;;9.90
69435;BMP180;56625;54.322;18.582;2023-04-25T05:10:05;99533.80;;;9.90
69435;BMP180;56625;54.322;18.582;2023-04-25T05:12:34;99536.20;;;9.90
69435;BMP180;56625;54.322;18.582;2023-04-25T05:15:04;99535.60;;;9.94
69435;BMP180;56625;54.322;18.582;2023-04-25T05:17:32;99540.40;;;10.00
69435;BMP180;56625;54.322;18.582;2023-04-25T05:20:00;99541.40;;;10.00
69435;BMP180;56625;54.322;18.582;2023-04-25T05:22:29;99539.60;;;10.00
69435;BMP180;56625;54.322;18.582;2023-04-25T05:24:57;99542.80;;;9.90
69435;BMP180;56625;54.322;18.582;2023-04-25T05:27:25;99540.80;;;9.90
69435;BMP180;56625;54.322;18.582;2023-04-25T05:29:53;99540.00;;;9.88
69435;BMP180;56625;54.322;18.582;2023-04-25T05:32:21;99546.00;;;9.88
69435;BMP180;56625;54.322;18.582;2023-04-25T05:34:49;99549.40;;;9.90
69435;BMP180;56625;54.322;18.582;2023-04-25T05:37:18;99552.40;;;9.86
69435;BMP180;56625;54.322;18.582;2023-04-25T05:39:46;99559.00;;;9.80
69435;BMP180;56625;54.322;18.582;2023-04-25T05:42:14;99560.60;;;9.80
69435;BMP180;56625;54.322;18.582;2023-04-25T05:44:42;99558.40;;;9.70
69435;BMP180;56625;54.322;18.582;2023-04-25T05:47:11;99563.20;;;9.76
69435;BMP180;56625;54.322;18.582;2023-04-25T05:49:39;99566.20;;;9.70
69435;BMP180;56625;54.322;18.582;2023-04-25T05:52:07;99561.80;;;9.70
69435;BMP180;56625;54.322;18.582;2023-04-25T05:54:35;99561.80;;;9.64
69435;BMP180;56625;54.322;18.582;2023-04-25T05:57:03;99563.40;;;9.70
69435;BMP180;56625;54.322;18.582;2023-04-25T05:59:31;99565.60;;;9.60
69435;BMP180;56625;54.322;18.582;2023-04-25T06:01:59;99569.20;;;9.60
69435;BMP180;56625;54.322;18.582;2023-04-25T06:04:28;99570.40;;;9.60
69435;BMP180;56625;54.322;18.582;2023-04-25T06:07:06;99572.60;;;9.56
69435;BMP180;56625;54.322;18.582;2023-04-25T06:09:34;99575.80;;;9.50
69435;BMP180;56625;54.322;18.582;2023-04-25T06:12:03;99576.20;;;9.50
69435;BMP180;56625;54.322;18.582;2023-04-25T06:14:33;99584.80;;;9.50
69435;BMP180;56625;54.322;18.582;2023-04-25T06:17:03;99585.20;;;9.40
69435;BMP180;56625;54.322;18.582;2023-04-25T06:19:36;99595.20;;;9.40
69435;BMP180;56625;54.322;18.582;2023-04-25T06:22:04;99580.00;;;9.30
69435;BMP180;56625;54.322;18.582;2023-04-25T06:24:32;99586.00;;;9.30
69435;BMP180;56625;54.322;18.582;2023-04-25T06:27:01;99584.40;;;9.20
69435;BMP180;56625;54.322;18.582;2023-04-25T06:29:28;99587.60;;;9.28
69435;BMP180;56625;54.322;18.582;2023-04-25T06:31:57;99592.60;;;9.30
69435;BMP180;56625;54.322;18.582;2023-04-25T06:34:25;99599.20;;;9.30
69435;BMP180;56625;54.322;18.582;2023-04-25T06:36:52;99598.80;;;9.28
69435;BMP180;56625;54.322;18.582;2023-04-25T06:39:20;99596.60;;;9.26
69435;BMP180;56625;54.322;18.582;2023-04-25T06:41:51;99599.60;;;9.20
69435;BMP180;56625;54.322;18.582;2023-04-25T06:44:18;99599.60;;;9.30
69435;BMP180;56625;54.322;18.582;2023-04-25T06:46:46;99604.40;;;9.30
69435;BMP180;56625;54.322;18.582;2023-04-25T06:49:14;99604.40;;;9.30
69435;BMP180;56625;54.322;18.582;2023-04-25T06:51:43;99603.20;;;9.30
69435;BMP180;56625;54.322;18.582;2023-04-25T06:54:11;99604.00;;;9.38
69435;BMP180;56625;54.322;18.582;2023-04-25T06:56:38;99598.60;;;9.40
69435;BMP180;56625;54.322;18.582;2023-04-25T06:59:06;99593.60;;;9.42
69435;BMP180;56625;54.322;18.582;2023-04-25T07:01:34;99591.60;;;9.50
69435;BMP180;56625;54.322;18.582;2023-04-25T07:04:03;99596.60;;;9.50
69435;BMP180;56625;54.322;18.582;2023-04-25T07:06:31;99596.20;;;9.60
69435;BMP180;56625;54.322;18.582;2023-04-25T07:08:59;99593.80;;;9.70
69435;BMP180;56625;54.322;18.582;2023-04-25T07:11:27;99601.00;;;9.84
69435;BMP180;56625;54.322;18.582;2023-04-25T07:13:54;99602.20;;;9.90
69435;BMP180;56625;54.322;18.582;2023-04-25T07:16:22;99603.40;;;9.90
69435;BMP180;56625;54.322;18.582;2023-04-25T07:18:50;99609.40;;;9.90
69435;BMP180;56625;54.322;18.582;2023-04-25T07:21:19;99607.40;;;9.90
69435;BMP180;56625;54.322;18.582;2023-04-25T07:23:47;99604.40;;;9.80
69435;BMP180;56625;54.322;18.582;2023-04-25T07:26:15;99609.80;;;9.80
69435;BMP180;56625;54.322;18.582;2023-04-25T07:28:43;99612.00;;;9.70
69435;BMP180;56625;54.322;18.582;2023-04-25T07:31:10;99617.00;;;9.78
69435;BMP180;56625;54.322;18.582;2023-04-25T07:33:38;99621.20;;;9.80
69435;BMP180;56625;54.322;18.582;2023-04-25T07:36:07;99623.80;;;9.76
69435;BMP180;56625;54.322;18.582;2023-04-25T07:38:35;99625.20;;;9.70
69435;BMP180;56625;54.322;18.582;2023-04-25T07:41:03;99622.60;;;9.62
69435;BMP180;56625;54.322;18.582;2023-04-25T07:43:31;99623.60;;;9.60
69435;BMP180;56625;54.322;18.582;2023-04-25T07:45:59;99626.40;;;9.60
69435;BMP180;56625;54.322;18.582;2023-04-25T07:48:27;99632.20;;;9.60
69435;BMP180;56625;54.322;18.582;2023-04-25T07:50:55;99634.60;;;9.62
69435;BMP180;56625;54.322;18.582;2023-04-25T07:53:21;99638.00;;;9.70
69435;BMP180;56625;54.322;18.582;2023-04-25T07:55:50;99643.20;;;9.70
69435;BMP180;56625;54.322;18.582;2023-04-25T07:58:18;99641.00;;;9.70
69435;BMP180;56625;54.322;18.582;2023-04-25T08:00:49;99641.60;;;9.74
69435;BMP180;56625;54.322;18.582;2023-04-25T08:03:17;99645.00;;;9.82
69435;BMP180;56625;54.322;18.582;2023-04-25T08:05:46;99645.60;;;9.90
69435;BMP180;56625;54.322;18.582;2023-04-25T08:08:14;99653.20;;;10.00
69435;BMP180;56625;54.322;18.582;2023-04-25T08:10:42;99645.80;;;10.00
69435;BMP180;56625;54.322;18.582;2023-04-25T08:13:09;99651.00;;;10.06
69435;BMP180;56625;54.322;18.582;2023-04-25T08:15:37;99646.60;;;10.10
69435;BMP180;56625;54.322;18.582;2023-04-25T08:18:05;99647.20;;;10.20
69435;BMP180;56625;54.322;18.582;2023-04-25T08:20:33;99652.00;;;10.34
69435;BMP180;56625;54.322;18.582;2023-04-25T08:23:01;99650.80;;;10.50
69435;BMP180;56625;54.322;18.582;2023-04-25T08:25:29;99650.20;;;10.70
69435;BMP180;56625;54.322;18.582;2023-04-25T08:27:57;99649.60;;;10.80
69435;BMP180;56625;54.322;18.582;2023-04-25T08:30:27;99652.20;;;10.90
69435;BMP180;56625;54.322;18.582;2023-04-25T08:32:55;99655.80;;;10.90
69435;BMP180;56625;54.322;18.582;2023-04-25T08:35:23;99662.40;;;10.90
69435;BMP180;56625;54.322;18.582;2023-04-25T08:37:50;99662.00;;;10.98
69435;BMP180;56625;54.322;18.582;2023-04-25T08:40:19;99663.60;;;11.00
69435;BMP180;56625;54.322;18.582;2023-04-25T08:42:54;99667.60;;;11.10
69435;BMP180;56625;54.322;18.582;2023-04-25T08:45:27;99666.40;;;11.10
69435;BMP180;56625;54.322;18.582;2023-04-25T08:47:57;99664.60;;;11.20
69435;BMP180;56625;54.322;18.582;2023-04-25T08:50:26;99669.40;;;11.20
69435;BMP180;56625;54.322;18.582;2023-04-25T08:52:54;99666.60;;;11.30
69435;BMP180;56625;54.322;18.582;2023-04-25T08:55:24;99669.40;;;11.40
69435;BMP180;56625;54.322;18.582;2023-04-25T08:57:54;99676.40;;;11.50
69435;BMP180;56625;54.322;18.582;2023-04-25T09:00:23;99673.20;;;11.60
69435;BMP180;56625;54.322;18.582;2023-04-25T09:02:52;99669.00;;;11.70
69435;BMP180;56625;54.322;18.582;2023-04-25T09:05:20;99679.00;;;11.80
69435;BMP180;56625;54.322;18.582;2023-04-25T09:07:48;99676.60;;;11.80
69435;BMP180;56625;54.322;18.582;2023-04-25T09:10:17;99688.60;;;11.80
69435;BMP180;56625;54.322;18.582;2023-04-25T09:13:14;99683.40;;;11.80
69435;BMP180;56625;54.322;18.582;2023-04-25T09:15:50;99683.80;;;11.80
69435;BMP180;56625;54.322;18.582;2023-04-25T09:18:27;99693.20;;;12.00
69435;BMP180;56625;54.322;18.582;2023-04-25T09:21:11;99690.40;;;12.00
69435;BMP180;56625;54.322;18.582;2023-04-25T09:23:47;99699.00;;;12.10
69435;BMP180;56625;54.322;18.582;2023-04-25T09:26:19;99703.00;;;12.00
69435;BMP180;56625;54.322;18.582;2023-04-25T09:28:47;99708.00;;;11.90
69435;BMP180;56625;54.322;18.582;2023-04-25T09:31:23;99704.20;;;11.80
69435;BMP180;56625;54.322;18.582;2023-04-25T09:33:59;99707.20;;;11.70
69435;BMP180;56625;54.322;18.582;2023-04-25T09:36:30;99719.20;;;11.56
69435;BMP180;56625;54.322;18.582;2023-04-25T09:38:59;99722.00;;;11.40
69435;BMP180;56625;54.322;18.582;2023-04-25T09:41:28;99716.20;;;11.28
69435;BMP180;56625;54.322;18.582;2023-04-25T09:43:57;99716.00;;;11.20
69435;BMP180;56625;54.322;18.582;2023-04-25T09:46:35;99720.00;;;11.20
69435;BMP180;56625;54.322;18.582;2023-04-25T09:49:07;99718.80;;;11.20
69435;BMP180;56625;54.322;18.582;2023-04-25T09:51:35;99722.00;;;11.20
69435;BMP180;56625;54.322;18.582;2023-04-25T09:54:03;99720.80;;;11.20
69435;BMP180;56625;54.322;18.582;2023-04-25T09:56:36;99724.80;;;11.20
69435;BMP180;56625;54.322;18.582;2023-04-25T09:59:06;99732.20;;;11.20
69435;BMP180;56625;54.322;18.582;2023-04-25T10:01:36;99734.20;;;11.20
69435;BMP180;56625;54.322;18.582;2023-04-25T10:04:11;99732.00;;;11.22
69435;BMP180;56625;54.322;18.582;2023-04-25T10:06:43;99733.60;;;11.30
69435;BMP180;56625;54.322;18.582;2023-04-25T10:09:13;99736.40;;;11.34
69435;BMP180;56625;54.322;18.582;2023-04-25T10:11:42;99739.00;;;11.48
69435;BMP180;56625;54.322;18.582;2023-04-25T10:14:13;99734.80;;;11.60
69435;BMP180;56625;54.322;18.582;2023-04-25T10:16:42;99734.40;;;11.70
69435;BMP180;56625;54.322;18.582;2023-04-25T10:19:10;99739.80;;;11.84
69435;BMP180;56625;54.322;18.582;2023-04-25T10:22:20;99739.00;;;11.90
69435;BMP180;56625;54.322;18.582;2023-04-25T10:24:51;99744.20;;;11.98
69435;BMP180;56625;54.322;18.582;2023-04-25T10:27:20;99741.40;;;12.00
69435;BMP180;56625;54.322;18.582;2023-04-25T10:30:05;99740.20;;;12.00
69435;BMP180;56625;54.322;18.582;2023-04-25T10:32:36;99746.40;;;12.00
69435;BMP180;56625;54.322;18.582;2023-04-25T10:35:17;99746.60;;;12.00
69435;BMP180;56625;54.322;18.582;2023-04-25T10:38:09;99745.40;;;11.94
69435;BMP180;56625;54.322;18.582;2023-04-25T10:40:37;99752.20;;;11.90
69435;BMP180;56625;54.322;18.582;2023-04-25T10:43:41;99755.60;;;11.86
69435;BMP180;56625;54.322;18.582;2023-04-25T10:46:22;99753.80;;;11.80
69435;BMP180;56625;54.322;18.582;2023-04-25T10:48:54;99749.80;;;11.70
69435;BMP180;56625;54.322;18.582;2023-04-25T10:51:25;99761.00;;;11.70
69435;BMP180;56625;54.322;18.582;2023-04-25T10:54:02;99760.80;;;11.60
69435;BMP180;56625;54.322;18.582;2023-04-25T10:56:37;99760.20;;;11.60
69435;BMP180;56625;54.322;18.582;2023-04-25T10:59:13;99760.00;;;11.60
69435;BMP180;56625;54.322;18.582;2023-04-25T11:01:52;99768.40;;;11.60
69435;BMP180;56625;54.322;18.582;2023-04-25T11:04:30;99766.60;;;11.60
69435;BMP180;56625;54.322;18.582;2023-04-25T11:09:39;99770.60;;;11.60
69435;BMP180;56625;54.322;18.582;2023-04-25T11:12:09;99771.20;;;11.58
69435;BMP180;56625;54.322;18.582;2023-04-25T11:14:39;99772.80;;;11.60
69435;BMP180;56625;54.322;18.582;2023-04-25T11:17:12;99770.40;;;11.60
69435;BMP180;56625;54.322;18.582;2023-04-25T11:19:41;99773.00;;;11.70
69435;BMP180;56625;54.322;18.582;2023-04-25T11:22:10;99772.60;;;11.70
69435;BMP180;56625;54.322;18.582;2023-04-25T11:24:38;99770.60;;;11.80
69435;BMP180;56625;54.322;18.582;2023-04-25T11:27:06;99778.20;;;11.82
69435;BMP180;56625;54.322;18.582;2023-04-25T11:29:35;99779.20;;;11.80
69435;BMP180;56625;54.322;18.582;2023-04-25T11:32:03;99781.40;;;11.80
69435;BMP180;56625;54.322;18.582;2023-04-25T11:34:32;99781.20;;;11.80
69435;BMP180;56625;54.322;18.582;2023-04-25T11:37:02;99781.80;;;11.80
69435;BMP180;56625;54.322;18.582;2023-04-25T11:39:31;99782.60;;;11.80
69435;BMP180;56625;54.322;18.582;2023-04-25T11:42:00;99784.00;;;11.80
69435;BMP180;56625;54.322;18.582;2023-04-25T11:44:35;99784.20;;;11.90
69435;BMP180;56625;54.322;18.582;2023-04-25T11:47:05;99782.00;;;11.90
69435;BMP180;56625;54.322;18.582;2023-04-25T11:49:33;99783.80;;;12.00
69435;BMP180;56625;54.322;18.582;2023-04-25T11:52:01;99779.60;;;12.00
69435;BMP180;56625;54.322;18.582;2023-04-25T11:54:29;99781.80;;;12.00
69435;BMP180;56625;54.322;18.582;2023-04-25T11:56:57;99789.60;;;12.00
69435;BMP180;56625;54.322;18.582;2023-04-25T11:59:25;99793.00;;;12.00
69435;BMP180;56625;54.322;18.582;2023-04-25T12:01:54;99796.20;;;11.90
69435;BMP180;56625;54.322;18.582;2023-04-25T12:04:23;99792.00;;;11.92
69435;BMP180;56625;54.322;18.582;2023-04-25T12:06:54;99798.60;;;11.90
69435;BMP180;56625;54.322;18.582;2023-04-25T12:09:31;99790.40;;;11.80
69435;BMP180;56625;54.322;18.582;2023-04-25T12:12:01;99795.20;;;11.80
69435;BMP180;56625;54.322;18.582;2023-04-25T12:14:34;99791.20;;;11.70
69435;BMP180;56625;54.322;18.582;2023-04-25T12:17:04;99796.80;;;11.70
69435;BMP180;56625;54.322;18.582;2023-04-25T12:19:37;99791.60;;;11.70
69435;BMP180;56625;54.322;18.582;2023-04-25T12:22:23;99800.80;;;11.80
69435;BMP180;56625;54.322;18.582;2023-04-25T12:24:51;99803.20;;;11.80
69435;BMP180;56625;54.322;18.582;2023-04-25T12:27:21;99801.40;;;11.80
69435;BMP180;56625;54.322;18.582;2023-04-25T12:29:55;99805.80;;;11.90
69435;BMP180;56625;54.322;18.582;2023-04-25T12:32:24;99801.00;;;12.00
69435;BMP180;56625;54.322;18.582;2023-04-25T12:34:54;99807.00;;;12.02
69435;BMP180;56625;54.322;18.582;2023-04-25T12:37:22;99808.60;;;12.10
69435;BMP180;56625;54.322;18.582;2023-04-25T12:39:50;99809.60;;;12.00
69435;BMP180;56625;54.322;18.582;2023-04-25T12:42:18;99808.80;;;11.90
69435;BMP180;56625;54.322;18.582;2023-04-25T12:44:46;99806.60;;;11.90
69435;BMP180;56625;54.322;18.582;2023-04-25T12:47:14;99815.00;;;11.80
69435;BMP180;56625;54.322;18.582;2023-04-25T12:49:42;99814.60;;;11.80
69435;BMP180;56625;54.322;18.582;2023-04-25T12:52:10;99810.20;;;11.70
69435;BMP180;56625;54.322;18.582;2023-04-25T12:54:38;99817.00;;;11.70
69435;BMP180;56625;54.322;18.582;2023-04-25T12:57:06;99818.40;;;11.70
69435;BMP180;56625;54.322;18.582;2023-04-25T12:59:34;99814.60;;;11.60
69435;BMP180;56625;54.322;18.582;2023-04-25T13:02:02;99811.60;;;11.58
69435;BMP180;56625;54.322;18.582;2023-04-25T13:04:30;99808.00;;;11.50
69435;BMP180;56625;54.322;18.582;2023-04-25T13:06:58;99804.00;;;11.50
69435;BMP180;56625;54.322;18.582;2023-04-25T13:09:26;99816.80;;;11.60
69435;BMP180;56625;54.322;18.582;2023-04-25T13:11:54;99807.20;;;11.62
69435;BMP180;56625;54.322;18.582;2023-04-25T13:14:25;99816.20;;;11.72
69435;BMP180;56625;54.322;18.582;2023-04-25T13:16:53;99820.80;;;11.86
69435;BMP180;56625;54.322;18.582;2023-04-25T13:19:22;99817.80;;;11.98
69435;BMP180;56625;54.322;18.582;2023-04-25T13:21:49;99822.60;;;12.10
69435;BMP180;56625;54.322;18.582;2023-04-25T13:24:18;99823.60;;;12.18
69435;BMP180;56625;54.322;18.582;2023-04-25T13:26:46;99814.60;;;12.20
69435;BMP180;56625;54.322;18.582;2023-04-25T13:29:14;99819.00;;;12.20
69435;BMP180;56625;54.322;18.582;2023-04-25T13:31:41;99822.40;;;12.20
69435;BMP180;56625;54.322;18.582;2023-04-25T13:34:09;99825.40;;;12.20
69435;BMP180;56625;54.322;18.582;2023-04-25T13:36:40;99828.00;;;12.20
69435;BMP180;56625;54.322;18.582;2023-04-25T13:39:08;99823.80;;;12.20
69435;BMP180;56625;54.322;18.582;2023-04-25T13:41:36;99819.00;;;12.20
69435;BMP180;56625;54.322;18.582;2023-04-25T13:44:04;99817.20;;;12.20
69435;BMP180;56625;54.322;18.582;2023-04-25T13:46:32;99822.00;;;12.24
69435;BMP180;56625;54.322;18.582;2023-04-25T13:49:13;99821.40;;;12.30
69435;BMP180;56625;54.322;18.582;2023-04-25T13:51:41;99820.00;;;12.30
69435;BMP180;56625;54.322;18.582;2023-04-25T13:54:10;99821.40;;;12.30
69435;BMP180;56625;54.322;18.582;2023-04-25T13:56:38;99820.60;;;12.24
69435;BMP180;56625;54.322;18.582;2023-04-25T13:59:06;99825.60;;;12.30
69435;BMP180;56625;54.322;18.582;2023-04-25T14:01:34;99823.40;;;12.40
69435;BMP180;56625;54.322;18.582;2023-04-25T14:04:03;99823.00;;;12.40
69435;BMP180;56625;54.322;18.582;2023-04-25T14:06:33;99822.60;;;12.46
69435;BMP180;56625;54.322;18.582;2023-04-25T14:09:01;99823.40;;;12.50
69435;BMP180;56625;54.322;18.582;2023-04-25T14:11:32;99827.60;;;12.50
69435;BMP180;56625;54.322;18.582;2023-04-25T14:14:00;99819.20;;;12.50